createdAt,value
2022-10-05T00:00:33.953Z,6.64
2022-10-05T00:03:51.926Z,6.58
2022-10-05T00:07:13.788Z,6.59
2022-10-05T00:10:30.262Z,6.62
2022-10-05T00:13:48.112Z,6.58
2022-10-05T00:20:30.062Z,6.59
2022-10-05T00:23:46.055Z,6.62
2022-10-05T00:27:02.048Z,6.63
2022-10-05T00:30:25.784Z,6.62
2022-10-05T00:33:41.709Z,6.64
2022-10-05T00:36:57.723Z,6.66
2022-10-05T00:40:19.546Z,6.64
2022-10-05T00:44:00.698Z,6.64
2022-10-05T00:47:41.282Z,6.65
2022-10-05T00:51:17.533Z,6.64
2022-10-05T00:54:38.192Z,6.67
2022-10-05T00:58:04.265Z,6.69
2022-10-05T01:01:25.076Z,6.68
2022-10-05T01:04:46.082Z,6.66
2022-10-05T01:08:07.158Z,6.62
2022-10-05T01:11:28.528Z,6.69
2022-10-05T01:14:52.019Z,6.71
2022-10-05T01:18:43.368Z,6.75
2022-10-05T01:22:03.231Z,6.72
2022-10-05T01:25:30.825Z,6.71
2022-10-05T01:28:51.036Z,6.70
2022-10-05T01:32:11.413Z,6.69
2022-10-05T01:35:42.385Z,6.63
2022-10-05T01:39:03.679Z,6.60
2022-10-05T01:42:26.606Z,6.58
2022-10-05T01:49:22.235Z,6.54
2022-10-05T01:52:44.931Z,6.51
2022-10-05T01:56:07.429Z,6.43
2022-10-05T01:59:31.623Z,6.39
2022-10-05T02:02:51.489Z,6.34
2022-10-05T02:06:12.131Z,6.26
2022-10-05T02:09:34.039Z,6.25
2022-10-05T02:12:52.186Z,6.25
2022-10-05T02:16:13.214Z,6.22
2022-10-05T02:19:33.971Z,6.22
2022-10-05T02:22:55.644Z,6.21
2022-10-05T02:26:14.917Z,6.17
2022-10-05T02:29:34.170Z,6.12
2022-10-05T02:32:55.462Z,6.09
2022-10-05T02:36:19.284Z,6.07
2022-10-05T02:39:40.893Z,6.10
2022-10-05T02:43:04.232Z,6.13
2022-10-05T02:46:30.018Z,6.11
2022-10-05T02:49:50.523Z,6.08
2022-10-05T02:53:15.428Z,6.08
2022-10-05T02:56:37.915Z,6.06
2022-10-05T02:59:59.068Z,6.09
2022-10-05T03:03:20.264Z,6.07
2022-10-05T03:06:40.970Z,6.09
2022-10-05T03:10:02.762Z,6.06
2022-10-05T03:13:25.743Z,6.10
2022-10-05T03:16:59.806Z,6.07
2022-10-05T03:20:30.764Z,6.07
2022-10-05T03:23:54.922Z,6.03
2022-10-05T03:27:19.928Z,6.01
2022-10-05T03:30:40.470Z,5.97
2022-10-05T03:34:00.865Z,5.95
2022-10-05T03:37:23.492Z,5.88
2022-10-05T03:40:45.738Z,5.91
2022-10-05T03:44:32.010Z,5.90
2022-10-05T03:47:59.021Z,5.88
2022-10-05T03:51:20.568Z,5.84
2022-10-05T03:54:41.135Z,5.78
2022-10-05T03:58:00.398Z,5.76
2022-10-05T04:01:17.629Z,5.75
2022-10-05T04:04:38.995Z,5.76
2022-10-05T04:08:01.417Z,5.75
2022-10-05T04:11:21.839Z,5.75
2022-10-05T04:14:42.233Z,5.73
2022-10-05T04:21:23.488Z,5.77
2022-10-05T04:24:42.507Z,5.80
2022-10-05T04:28:04.280Z,5.83
2022-10-05T04:31:27.459Z,5.95
2022-10-05T04:35:11.764Z,6.04
2022-10-05T04:38:50.564Z,5.94
2022-10-05T04:42:17.929Z,5.95
2022-10-05T04:46:34.333Z,5.90
2022-10-05T04:50:29.019Z,5.85
2022-10-05T04:53:51.791Z,5.82
2022-10-05T04:57:12.673Z,5.81
2022-10-05T05:05:32.345Z,5.82
2022-10-05T05:09:06.750Z,5.80
2022-10-05T05:12:31.692Z,5.77
2022-10-05T05:22:25.399Z,5.82
2022-10-05T05:25:50.007Z,5.85
2022-10-05T05:29:10.830Z,5.86
2022-10-05T05:36:07.490Z,5.87
2022-10-05T05:39:34.962Z,5.95
2022-10-05T05:42:59.240Z,6.05
2022-10-05T05:46:33.955Z,6.15
2022-10-05T05:49:50.819Z,6.24
2022-10-05T05:53:11.638Z,6.36
2022-10-05T05:56:33.048Z,6.48
2022-10-05T06:00:02.553Z,6.60
2022-10-05T06:03:24.821Z,6.72
2022-10-05T06:06:45.596Z,6.84
2022-10-05T06:10:07.328Z,6.92
2022-10-05T06:13:32.381Z,7.14
2022-10-05T06:16:52.831Z,7.34
2022-10-05T06:20:16.609Z,7.52
2022-10-05T06:23:39.095Z,7.62
2022-10-05T06:27:32.097Z,7.67
2022-10-05T06:31:24.745Z,7.70
2022-10-05T06:35:02.459Z,7.72
2022-10-05T06:38:37.320Z,7.73
2022-10-05T06:42:05.786Z,7.74
2022-10-05T06:50:40.756Z,9.23
2022-10-05T06:54:14.015Z,10.03
2022-10-05T06:57:44.662Z,10.66
2022-10-05T07:04:45.996Z,12.08
2022-10-05T07:08:07.037Z,12.54
2022-10-05T07:11:33.612Z,12.65
2022-10-05T07:15:30.685Z,13.15
2022-10-05T07:19:10.931Z,13.82
2022-10-05T07:23:09.490Z,14.46
2022-10-05T07:26:31.734Z,15.13
2022-10-05T07:29:56.905Z,15.55
2022-10-05T07:33:18.322Z,15.57
2022-10-05T07:36:55.355Z,15.25
2022-10-05T07:40:20.687Z,14.86
2022-10-05T07:44:03.392Z,14.55
2022-10-05T07:50:28.176Z,14.43
2022-10-05T07:53:49.392Z,14.30
2022-10-05T07:57:11.857Z,14.14
2022-10-05T08:00:32.958Z,14.11
2022-10-05T08:04:00.202Z,13.98
2022-10-05T08:07:21.617Z,13.90
2022-10-05T08:10:44.514Z,13.77
2022-10-05T08:14:06.068Z,13.70
2022-10-05T08:20:48.198Z,13.81
2022-10-05T08:24:09.414Z,13.86
2022-10-05T08:27:30.902Z,13.94
2022-10-05T08:30:57.795Z,14.05
2022-10-05T08:35:29.204Z,14.15
2022-10-05T08:38:46.848Z,14.27
2022-10-05T08:42:43.011Z,14.42
2022-10-05T08:46:26.981Z,14.61
2022-10-05T08:50:07.155Z,14.77
2022-10-05T08:53:37.203Z,14.95
2022-10-05T08:56:58.795Z,15.10
2022-10-05T09:00:24.512Z,15.11
2022-10-05T09:04:18.062Z,15.12
2022-10-05T09:08:10.298Z,15.10
2022-10-05T09:11:32.701Z,15.15
2022-10-05T09:15:24.186Z,15.14
2022-10-05T09:19:35.395Z,15.18
2022-10-05T09:23:08.662Z,15.26
2022-10-05T09:26:50.584Z,15.33
2022-10-05T09:30:38.557Z,15.41
2022-10-05T09:34:20.391Z,15.47
2022-10-05T09:38:00.738Z,15.55
2022-10-05T09:42:21.528Z,15.59
2022-10-05T09:46:20.569Z,15.65
2022-10-05T09:50:17.781Z,15.67
2022-10-05T09:54:20.065Z,15.66
2022-10-05T09:58:15.040Z,15.64
2022-10-05T10:01:57.251Z,15.69
2022-10-05T10:05:35.674Z,15.82
2022-10-05T10:09:12.013Z,15.90
2022-10-05T10:12:41.455Z,15.93
2022-10-05T10:16:20.923Z,16.00
2022-10-05T10:20:05.834Z,16.05
2022-10-05T10:24:15.441Z,16.00
2022-10-05T10:28:03.085Z,16.14
2022-10-05T10:31:45.735Z,16.18
2022-10-05T10:35:35.093Z,16.21
2022-10-05T10:39:00.087Z,16.20
2022-10-05T10:42:37.779Z,16.26
2022-10-05T10:46:02.990Z,16.31
2022-10-05T10:49:40.793Z,16.38
2022-10-05T10:53:11.277Z,16.40
2022-10-05T10:56:48.280Z,16.49
2022-10-05T11:00:46.111Z,16.62
2022-10-05T11:04:59.210Z,16.77
2022-10-05T11:08:43.518Z,16.82
2022-10-05T11:12:35.579Z,16.91
2022-10-05T11:16:41.150Z,16.88
2022-10-05T11:20:25.352Z,16.86
2022-10-05T11:24:26.084Z,16.87
2022-10-05T11:28:21.038Z,16.85
2022-10-05T11:32:15.785Z,16.83
2022-10-05T11:36:13.093Z,16.88
2022-10-05T11:39:44.310Z,16.94
2022-10-05T11:43:35.996Z,16.96
2022-10-05T11:50:17.448Z,17.01
2022-10-05T11:53:38.172Z,17.01
2022-10-05T11:57:01.778Z,17.04
2022-10-05T12:00:26.155Z,17.03
2022-10-05T12:07:13.237Z,17.02
2022-10-05T12:10:40.832Z,17.03
2022-10-05T12:14:02.442Z,17.01
2022-10-05T12:20:53.071Z,17.01
2022-10-05T12:24:16.162Z,17.01
2022-10-05T12:27:36.548Z,17.01
2022-10-05T12:31:29.748Z,17.05
2022-10-05T12:35:01.700Z,17.05
2022-10-05T12:38:23.767Z,17.06
2022-10-05T12:41:46.024Z,17.07
2022-10-05T12:45:17.287Z,17.10
2022-10-05T12:49:18.558Z,17.12
2022-10-05T12:52:59.278Z,17.11
2022-10-05T12:56:22.416Z,17.14
2022-10-05T12:59:46.516Z,17.17
2022-10-05T13:03:06.246Z,17.16
2022-10-05T13:06:28.878Z,17.11
2022-10-05T13:09:50.721Z,17.11
2022-10-05T13:13:37.226Z,17.12
2022-10-05T13:17:00.216Z,17.15
2022-10-05T13:20:24.193Z,17.19
2022-10-05T13:23:50.753Z,17.22
2022-10-05T13:27:12.023Z,17.23
2022-10-05T13:30:29.196Z,17.21
2022-10-05T13:34:18.714Z,17.22
2022-10-05T13:37:42.061Z,17.21
2022-10-05T13:41:04.829Z,17.17
2022-10-05T13:44:28.915Z,17.16
2022-10-05T13:47:52.509Z,17.12
2022-10-05T13:51:16.289Z,17.10
2022-10-05T13:54:40.846Z,17.06
2022-10-05T13:58:06.649Z,16.99
2022-10-05T14:01:28.968Z,16.95
2022-10-05T14:04:56.882Z,16.99
2022-10-05T14:08:26.262Z,16.98
2022-10-05T14:11:45.319Z,16.91
2022-10-05T14:15:00.439Z,16.82
2022-10-05T14:18:34.188Z,16.76
2022-10-05T14:22:01.268Z,16.77
2022-10-05T14:25:24.625Z,16.72
2022-10-05T14:28:44.345Z,16.70
2022-10-05T14:32:05.839Z,16.65
2022-10-05T14:35:28.837Z,16.59
2022-10-05T14:39:01.079Z,16.53
2022-10-05T14:42:26.423Z,16.50
2022-10-05T14:45:43.629Z,16.44
2022-10-05T14:49:12.158Z,16.43
2022-10-05T14:52:42.023Z,16.41
2022-10-05T14:56:30.628Z,16.36
2022-10-05T15:00:17.213Z,16.23
2022-10-05T15:03:52.664Z,16.11
2022-10-05T15:07:19.453Z,16.05
2022-10-05T15:10:44.749Z,15.97
2022-10-05T15:14:02.571Z,15.87
2022-10-05T15:17:27.305Z,15.76
2022-10-05T15:20:53.132Z,15.73
2022-10-05T15:24:14.522Z,15.69
2022-10-05T15:27:36.756Z,15.62
2022-10-05T15:30:59.702Z,15.55
2022-10-05T15:34:22.382Z,15.49
2022-10-05T15:37:45.085Z,15.40
2022-10-05T15:41:08.279Z,15.31
2022-10-05T15:44:32.518Z,15.19
2022-10-05T15:48:00.217Z,15.09
2022-10-05T15:51:30.854Z,14.98
2022-10-05T15:55:32.964Z,14.88
2022-10-05T15:59:01.469Z,14.78
2022-10-05T16:02:27.460Z,14.76
2022-10-05T16:06:05.722Z,14.69
2022-10-05T16:09:47.401Z,14.60
2022-10-05T16:13:17.456Z,14.51
2022-10-05T16:21:42.469Z,14.33
2022-10-05T16:25:12.719Z,14.31
2022-10-05T16:28:43.593Z,14.33
2022-10-05T16:35:30.258Z,14.29
2022-10-05T16:38:51.778Z,14.30
2022-10-05T16:42:16.817Z,14.29
2022-10-05T16:45:52.198Z,14.25
2022-10-05T16:49:15.738Z,14.14
2022-10-05T16:52:33.866Z,14.11
2022-10-05T16:55:54.092Z,14.13
2022-10-05T16:59:22.196Z,14.17
2022-10-05T17:06:26.897Z,14.16
2022-10-05T17:10:24.020Z,14.10
2022-10-05T17:14:03.150Z,14.02
2022-10-05T17:17:43.377Z,13.96
2022-10-05T17:21:06.940Z,13.88
2022-10-05T17:24:49.421Z,13.86
2022-10-05T17:28:21.327Z,13.85
2022-10-05T17:31:40.104Z,13.85
2022-10-05T17:35:25.580Z,13.78
2022-10-05T17:39:00.648Z,13.69
2022-10-05T17:42:53.975Z,13.55
2022-10-05T17:46:13.306Z,13.39
2022-10-05T17:53:02.383Z,13.10
2022-10-05T17:56:19.756Z,12.94
2022-10-05T17:59:57.397Z,12.82
2022-10-05T18:03:46.899Z,12.74
2022-10-05T18:07:22.091Z,12.63
2022-10-05T18:10:41.265Z,12.49
2022-10-05T18:14:00.735Z,12.43
2022-10-05T18:20:41.699Z,12.34
2022-10-05T18:24:15.874Z,12.25
2022-10-05T18:27:55.061Z,12.18
2022-10-05T18:31:22.360Z,12.12
2022-10-05T18:38:06.266Z,11.96
2022-10-05T18:41:49.033Z,11.90
2022-10-05T18:45:13.636Z,11.83
2022-10-05T18:51:53.394Z,11.83
2022-10-05T18:55:19.339Z,11.77
2022-10-05T18:58:44.606Z,11.68
2022-10-05T19:03:03.870Z,11.63
2022-10-05T19:06:31.054Z,11.58
2022-10-05T19:10:13.412Z,11.53
2022-10-05T19:13:45.613Z,11.47
2022-10-05T19:18:06.898Z,11.42
2022-10-05T19:21:33.865Z,11.29
2022-10-05T19:25:14.835Z,11.27
2022-10-05T19:28:39.902Z,11.24
2022-10-05T19:32:02.719Z,11.22
2022-10-05T19:38:44.870Z,11.07
2022-10-05T19:42:17.787Z,11.04
2022-10-05T19:45:38.576Z,10.99
2022-10-05T19:48:55.458Z,10.95
2022-10-05T19:52:16.077Z,10.94
2022-10-05T19:55:43.410Z,10.89
2022-10-05T19:59:02.097Z,10.86
2022-10-05T20:02:22.941Z,10.84
2022-10-05T20:05:39.017Z,10.79
2022-10-05T20:08:59.083Z,10.78
2022-10-05T20:12:16.095Z,10.76
2022-10-05T20:15:48.426Z,10.79
2022-10-05T20:19:19.163Z,10.73
2022-10-05T20:22:47.204Z,10.75
2022-10-05T20:26:17.653Z,10.80
2022-10-05T20:29:34.189Z,10.82
2022-10-05T20:32:52.370Z,10.69
2022-10-05T20:36:09.518Z,10.67
2022-10-05T20:39:26.480Z,10.63
2022-10-05T20:42:42.618Z,10.57
2022-10-05T20:45:59.428Z,10.48
2022-10-05T20:49:15.671Z,10.40
2022-10-05T20:52:32.394Z,10.40
2022-10-05T20:55:48.838Z,10.38
2022-10-05T20:59:05.270Z,10.34
2022-10-05T21:02:21.742Z,10.32
2022-10-05T21:05:37.000Z,10.29
2022-10-05T21:08:55.020Z,10.20
2022-10-05T21:12:11.257Z,10.12
2022-10-05T21:15:27.527Z,10.12
2022-10-05T21:18:45.153Z,10.03
2022-10-05T21:22:03.215Z,9.98
2022-10-05T21:25:19.777Z,9.96
2022-10-05T21:28:36.599Z,9.96
2022-10-05T21:31:52.809Z,9.88
2022-10-05T21:35:09.112Z,9.81
2022-10-05T21:38:25.659Z,9.76
2022-10-05T21:41:42.225Z,9.71
2022-10-05T21:44:58.331Z,9.73
2022-10-05T21:48:14.863Z,9.73
2022-10-05T21:51:34.392Z,9.72
2022-10-05T21:54:50.547Z,9.68
2022-10-05T21:58:08.482Z,9.65
2022-10-05T22:01:24.601Z,9.64
2022-10-05T22:04:40.894Z,9.65
2022-10-05T22:07:57.195Z,9.69
2022-10-05T22:11:21.261Z,9.66
2022-10-05T22:14:37.379Z,9.66
2022-10-05T22:17:53.708Z,9.60
2022-10-05T22:21:10.701Z,9.55
2022-10-05T22:24:26.824Z,9.53
2022-10-05T22:27:43.922Z,9.55
2022-10-05T22:31:00.210Z,9.55
2022-10-05T22:34:16.191Z,9.53
2022-10-05T22:37:34.255Z,9.59
2022-10-05T22:40:50.461Z,9.53
2022-10-05T22:44:07.561Z,9.52
2022-10-05T22:47:23.615Z,9.51
2022-10-05T22:53:55.725Z,9.43
2022-10-05T22:57:11.899Z,9.41
2022-10-05T23:00:53.393Z,9.36
2022-10-05T23:03:46.213Z,9.36
2022-10-05T23:07:02.251Z,9.34
2022-10-05T23:10:22.453Z,9.31
2022-10-05T23:13:40.174Z,9.26
2022-10-05T23:16:56.465Z,9.25
2022-10-05T23:20:15.167Z,9.18
2022-10-05T23:23:31.385Z,9.15
2022-10-05T23:26:47.415Z,9.07
2022-10-05T23:30:03.255Z,9.01
2022-10-05T23:36:36.666Z,8.90
2022-10-05T23:39:52.665Z,8.88
2022-10-05T23:43:08.622Z,8.87
2022-10-05T23:46:25.363Z,8.82
2022-10-05T23:49:41.488Z,8.76
2022-10-05T23:52:57.410Z,8.72
2022-10-05T23:56:15.062Z,8.62
2022-10-05T23:59:31.429Z,8.55
